createdAt,value
2022-12-01T00:00:34.972Z,-16.32
2022-12-01T00:03:38.528Z,-16.32
2022-12-01T00:06:42.510Z,-16.26
2022-12-01T00:10:04.245Z,-16.32
2022-12-01T00:13:08.343Z,-16.23
2022-12-01T00:16:16.818Z,-16.16
2022-12-01T00:19:20.198Z,-16.15
2022-12-01T00:22:23.141Z,-16.13
2022-12-01T00:25:28.901Z,-15.98
2022-12-01T00:28:32.661Z,-15.98
2022-12-01T00:31:36.601Z,-15.92
2022-12-01T00:34:40.058Z,-15.84
2022-12-01T00:37:44.754Z,-15.71
2022-12-01T00:40:48.337Z,-15.59
2022-12-01T00:43:52.952Z,-15.51
2022-12-01T00:46:56.620Z,-15.44
2022-12-01T00:50:00.126Z,-15.45
2022-12-01T00:53:03.681Z,-15.38
2022-12-01T00:56:07.371Z,-15.27
2022-12-01T00:59:10.964Z,-15.23
2022-12-01T01:02:14.875Z,-15.08
2022-12-01T01:05:18.575Z,-15.00
2022-12-01T01:08:22.887Z,-14.88
2022-12-01T01:11:26.548Z,-14.84
2022-12-01T01:14:30.569Z,-14.77
2022-12-01T01:17:34.292Z,-14.65
2022-12-01T01:20:38.251Z,-14.49
2022-12-01T01:23:42.119Z,-14.45
2022-12-01T01:26:46.102Z,-14.30
2022-12-01T01:29:49.915Z,-14.26
2022-12-01T01:32:53.935Z,-14.06
2022-12-01T01:36:00.617Z,-13.98
2022-12-01T01:39:04.749Z,-13.94
2022-12-01T01:42:14.579Z,-13.82
2022-12-01T01:45:26.280Z,-13.72
2022-12-01T01:48:29.629Z,-13.69
2022-12-01T01:51:43.434Z,-13.64
2022-12-01T01:54:50.053Z,-13.62
2022-12-01T01:57:53.211Z,-13.53
2022-12-01T02:00:57.117Z,-13.40
2022-12-01T02:04:00.738Z,-13.28
2022-12-01T02:07:05.734Z,-12.91
2022-12-01T02:10:13.614Z,-12.91
2022-12-01T02:13:40.932Z,-12.63
2022-12-01T02:16:50.726Z,-12.43
2022-12-01T02:20:28.037Z,-12.30
2022-12-01T02:23:52.266Z,-12.19
2022-12-01T02:27:13.993Z,-12.04
2022-12-01T02:30:50.226Z,-11.75
2022-12-01T02:33:59.361Z,-11.71
2022-12-01T02:37:34.030Z,-11.68
2022-12-01T02:40:40.930Z,-11.41
2022-12-01T02:43:56.500Z,-11.37
2022-12-01T02:47:20.233Z,-11.42
2022-12-01T02:50:26.097Z,-11.25
2022-12-01T02:53:29.786Z,-11.40
2022-12-01T02:56:33.641Z,-11.18
2022-12-01T02:59:37.131Z,-10.71
2022-12-01T03:02:51.075Z,-10.59
2022-12-01T03:06:23.886Z,-10.77
2022-12-01T03:09:44.764Z,-10.63
2022-12-01T03:13:03.101Z,-10.40
2022-12-01T03:16:11.025Z,-10.69
2022-12-01T03:19:21.561Z,-10.75
2022-12-01T03:22:34.531Z,-10.81
2022-12-01T03:25:40.553Z,-10.83
2022-12-01T03:29:01.235Z,-10.84
2022-12-01T03:32:18.357Z,-10.86
2022-12-01T03:35:28.006Z,-10.81
2022-12-01T03:38:34.084Z,-10.84
2022-12-01T03:41:43.719Z,-11.04
2022-12-01T03:44:51.307Z,-10.76
2022-12-01T03:47:55.627Z,-10.48
2022-12-01T03:51:22.605Z,-10.29
2022-12-01T03:54:41.977Z,-10.35
2022-12-01T03:58:04.898Z,-10.33
2022-12-01T04:01:10.049Z,-10.40
2022-12-01T04:04:15.374Z,-10.57
2022-12-01T04:07:19.780Z,-10.38
2022-12-01T04:10:23.270Z,-10.20
2022-12-01T04:13:27.704Z,-10.35
2022-12-01T04:16:31.351Z,-10.49
2022-12-01T04:19:35.013Z,-10.33
2022-12-01T04:22:38.612Z,-10.33
2022-12-01T04:25:41.755Z,-10.67
2022-12-01T04:28:45.352Z,-10.68
2022-12-01T04:31:48.650Z,-10.46
2022-12-01T04:34:51.840Z,-10.32
2022-12-01T04:37:54.725Z,-10.26
2022-12-01T04:40:57.571Z,-10.19
2022-12-01T04:44:01.646Z,-10.16
2022-12-01T04:47:06.371Z,-10.00
2022-12-01T04:50:10.878Z,-10.22
2022-12-01T04:53:13.819Z,-10.22
2022-12-01T04:56:17.367Z,-10.35
2022-12-01T04:59:20.760Z,-10.26
2022-12-01T05:02:25.508Z,-10.38
2022-12-01T05:05:29.144Z,-10.27
2022-12-01T05:08:33.307Z,-10.36
2022-12-01T05:11:38.163Z,-10.34
2022-12-01T05:14:42.185Z,-10.19
2022-12-01T05:17:45.746Z,-10.35
2022-12-01T05:20:59.399Z,-10.44
2022-12-01T05:24:02.928Z,-10.23
2022-12-01T05:27:06.814Z,-10.26
2022-12-01T05:30:10.292Z,-10.46
2022-12-01T05:33:14.331Z,-10.67
2022-12-01T05:36:17.753Z,-10.82
2022-12-01T05:39:20.934Z,-10.79
2022-12-01T05:42:24.730Z,-10.71
2022-12-01T05:45:28.323Z,-10.76
2022-12-01T05:48:31.176Z,-11.14
2022-12-01T05:51:34.433Z,-11.13
2022-12-01T05:54:37.735Z,-11.13
2022-12-01T05:57:40.596Z,-11.08
2022-12-01T06:00:45.991Z,-11.05
2022-12-01T06:03:49.672Z,-11.09
2022-12-01T06:06:53.345Z,-11.18
2022-12-01T06:09:56.859Z,-11.25
2022-12-01T06:12:59.656Z,-11.09
2022-12-01T06:16:07.436Z,-10.99
2022-12-01T06:19:10.925Z,-10.93
2022-12-01T06:22:14.002Z,-10.91
2022-12-01T06:25:17.351Z,-10.91
2022-12-01T06:28:20.357Z,-10.84
2022-12-01T06:31:23.953Z,-10.83
2022-12-01T06:34:27.790Z,-10.95
2022-12-01T06:37:30.617Z,-11.04
2022-12-01T06:40:33.563Z,-11.02
2022-12-01T06:43:41.014Z,-11.17
2022-12-01T06:46:45.093Z,-11.20
2022-12-01T06:49:48.167Z,-11.35
2022-12-01T06:52:53.545Z,-11.25
2022-12-01T06:56:05.903Z,-11.09
2022-12-01T06:59:10.273Z,-11.36
2022-12-01T07:02:14.457Z,-11.35
2022-12-01T07:05:18.463Z,-11.24
2022-12-01T07:08:21.382Z,-11.11
2022-12-01T07:11:25.347Z,-11.17
2022-12-01T07:14:29.192Z,-11.14
2022-12-01T07:17:33.184Z,-11.21
2022-12-01T07:20:36.788Z,-11.24
2022-12-01T07:23:40.676Z,-11.31
2022-12-01T07:26:44.486Z,-11.24
2022-12-01T07:29:48.197Z,-11.24
2022-12-01T07:32:52.519Z,-11.17
2022-12-01T07:35:56.050Z,-11.24
2022-12-01T07:38:59.477Z,-11.19
2022-12-01T07:42:03.413Z,-11.15
2022-12-01T07:45:07.311Z,-11.18
2022-12-01T07:48:10.771Z,-11.05
2022-12-01T07:51:19.289Z,-11.04
2022-12-01T07:54:22.973Z,-11.06
2022-12-01T07:57:26.107Z,-11.12
2022-12-01T08:00:29.761Z,-11.01
2022-12-01T08:03:33.616Z,-11.11
2022-12-01T08:06:36.902Z,-11.14
2022-12-01T08:09:40.470Z,-11.08
2022-12-01T08:12:43.973Z,-11.09
2022-12-01T08:15:47.399Z,-11.09
2022-12-01T08:18:51.758Z,-11.12
2022-12-01T08:21:55.628Z,-11.05
2022-12-01T08:24:59.216Z,-10.97
2022-12-01T08:28:03.249Z,-11.01
2022-12-01T08:31:32.524Z,-10.94
2022-12-01T08:34:39.597Z,-10.87
2022-12-01T08:37:42.555Z,-10.93
2022-12-01T08:40:46.406Z,-10.98
2022-12-01T08:43:58.013Z,-10.90
2022-12-01T08:47:02.540Z,-10.97
2022-12-01T08:50:06.856Z,-11.07
2022-12-01T08:53:10.319Z,-11.05
2022-12-01T08:56:20.249Z,-11.12
2022-12-01T08:59:24.196Z,-11.29
2022-12-01T09:02:27.921Z,-11.36
2022-12-01T09:05:32.048Z,-11.34
2022-12-01T09:08:36.368Z,-11.31
2022-12-01T09:11:40.656Z,-11.33
